Date,TemperatureHighF,TemperatureAvgF,TemperatureLowF,DewpointHighF,DewpointAvgF,DewpointLowF,HumidityHigh,HumidityAvg,HumidityLow,PressureMaxIn,PressureMinIn,WindSpeedMaxMPH,WindSpeedAvgMPH,GustSpeedMaxMPH,PrecipitationSumIn
2013-6-1,64.0,48.7,33.0,28.0,17.9,9.0,56,31,16,0.00,40.00,11,5,24,0.00
2013-6-2,70.0,53.6,33.0,31.0,15.8,-99.9,76,35,10,0.00,40.00,11,6,27,0.00
2013-6-3,70.0,58.9,48.0,28.0,19.1,13.0,38,23,11,0.00,40.00,17,9,37,0.00
2013-6-4,67.0,56.5,47.0,31.0,25.1,20.0,48,31,17,0.00,40.00,16,8,34,0.00
2013-6-5,69.0,50.7,39.0,45.0,33.5,14.0,100,65,12,0.00,40.00,14,5,28,0.01
2013-6-6,68.0,51.8,34.0,40.0,32.2,23.0,98,58,19,0.00,40.00,10,4,21,0.02
2013-6-7,63.0,50.6,38.0,40.0,33.8,27.0,87,56,28,0.00,40.00,15,5,30,0.02
2013-6-8,70.0,60.0,49.0,30.0,27.0,23.0,43,30,18,0.00,40.00,15,9,34,0.00
2013-6-9,77.0,63.8,44.0,33.0,24.5,18.0,58,26,11,0.00,40.00,11,6,22,0.00
2013-6-10,78.0,67.4,52.0,33.0,24.3,19.0,34,21,11,0.00,40.00,16,7,35,0.00
2013-6-11,75.0,66.6,53.0,30.0,15.5,7.0,31,16,7,0.00,40.00,21,10,37,0.00
2013-6-12,77.0,64.5,52.0,28.0,20.0,15.0,30,19,10,0.00,40.00,13,7,28,0.00
2013-6-13,76.0,62.9,49.0,39.0,23.6,13.0,56,24,13,0.00,40.00,15,8,35,0.00
2013-6-14,76.0,62.9,50.0,37.0,24.3,10.0,60,28,9,0.00,40.00,17,8,42,0.00
2013-6-15,73.0,58.7,43.0,38.0,26.7,12.0,65,35,11,0.00,40.00,13,6,28,0.00
2013-6-16,66.0,54.2,45.0,42.0,30.7,23.0,79,43,25,0.00,40.00,23,8,40,0.05
2013-6-17,69.0,51.0,39.0,40.0,33.4,24.0,76,54,22,0.00,40.00,10,4,22,0.06
2013-6-18,70.0,56.5,40.0,43.0,31.5,22.0,83,46,20,0.00,40.00,13,7,30,0.01
2013-6-19,76.0,60.1,41.0,40.0,19.8,2.0,75,31,6,0.00,40.00,12,7,31,0.00
2013-6-20,73.0,60.7,47.0,19.0,9.3,1.0,21,13,9,0.00,40.00,12,7,25,0.00
2013-6-22,73.0,66.5,55.0,21.0,12.8,8.0,20,13,8,0.00,40.00,17,10,30,0.00
2013-6-23,73.0,58.4,44.0,35.0,20.0,13.0,43,24,13,0.00,40.00,14,7,33,0.00
2013-6-24,71.0,58.8,45.0,35.0,21.7,11.0,57,29,10,0.00,40.00,13,6,30,0.00
2013-6-25,75.0,63.2,52.0,27.0,21.1,16.0,29,20,15,0.00,40.00,10,8,22,0.00
2013-6-26,84.0,68.5,49.0,32.0,27.9,24.0,38,24,11,0.00,40.00,9,6,19,0.00
2013-6-27,86.0,71.0,59.0,35.0,27.9,22.0,35,21,11,0.00,40.00,11,6,31,0.00
2013-6-28,82.0,66.1,51.0,43.0,35.6,27.0,59,36,14,0.00,40.00,11,6,24,0.00
2013-6-29,73.0,56.9,48.0,46.0,41.8,37.0,85,59,28,0.00,40.00,9,4,26,0.04
2013-6-30,76.0,56.9,45.0,46.0,41.2,30.0,89,60,20,0.00,40.00,9,4,26,0.06